Flight Number: EUR1438 Duration: 0:45
Departure: Gatwick Airport (EGKK) at 07:00 Distance: 197 Nm
Arrival: Amsterdam Schiphol (EHAM) at 07:45 Equipment: B737

Weather Information
London / Gatwick Airport, United Kingdom (EGKK) 51-09N 000-11W 0M Nov 18, 2017 - 06:50 AM EST / 2017.11.18 1150 UTC
Wind: from the SW (230 degrees) at 13 MPH (11 KT):0
Visibility: greater than 7 mile(s):0
Sky conditions: mostly cloudy Temperature: 46 F (8 C) Dew Point: 44 F (7 C) Relative Humidity: 93% Pressure (altimeter): 30.18 in. Hg (1022 hPa)
ob: EGKK 181150Z 23011KT 9999 FEW007 BKN015 08/07 Q1022 cycle: 12
Sunrise: 07:28 Sunset: 16:04 (UTC)

Amsterdam Airport Schiphol, Netherlands (EHAM) 52-18N 004-46E -2M Nov 18, 2017 - 06:25 AM EST / 2017.11.18 1125 UTC
Wind: from the W (280 degrees) at 23 MPH (20 KT):0
Visibility: greater than 7 mile(s):0
Sky conditions: partly cloudy Weather: light rain showers; Towering cumulus clouds observed Temperature: 48 F (9 C) Dew Point: 42 F (6 C) Relative Humidity: 81% Pressure (altimeter): 30.03 in. Hg (1017 hPa)
ob: EHAM 181125Z 28020KT 9999 -SHRA FEW021TCU SCT042 09/06 Q1017 TEMPO 7000 cycle: 11
Sunrise: 07:12 Sunset: 15:39 (UTC)

TAF:2017/11/18 12:27 TAF TAF EHAM 181102Z 1812/1918 29020G30KT 9999 SCT022 TEMPO 1812/1815 30023G35KT 6000 SHRA SCT018CB BKN030 BECMG 1813/1816 31012KT PROB40 TEMPO 1903/1909 32018G28KT 7000 -SHRA FEW018CB BKN030 BECMG 1907/1910 31017G27KT BECMG 1914/1917 30012KT

Previous Pireps for this route
Date Aircraft Flight time Fuel used Landing rate On time
2013-01-16B7370.3939000Charter
2013-07-21DHC81.1028580No
2014-02-24A32101.4692460Charter
2014-10-04B7371.0848000No
2014-10-15DHC80.5911850Yes
2015-04-15B7770.53134980Charter
2015-04-19B1900D00.51754-157Charter
2015-05-09B7770,486780-53Charter
2015-05-09B7770.4867800Charter
2015-05-25B7370.5059150No
2015-06-11DHC80.558890Yes
2015-10-09B73700.576900-322Charter
2015-12-30B73701.046566-444Yes
2016-06-12B73700.595220-100No
2016-09-14B7370-50No
2016-11-11B7771.3050000Charter
2017-02-21B7370.0028480-559No
2017-10-07DHC80.591927-143No
(pireps marked green are flown by you)

Route map